Time;durP1;ratioP1;P1;durP2;ratioP2;P2;SDS_P1;SDS_P2;PMS_P1;PMS_P2;Temp;Humidity;BMP_temperature;BMP_pressure;BME280_temperature;BME280_humidity;BME280_pressure;Samples;Min_cycle;Max_cycle;Signal;HPM_P1;HPM_P2
2022/11/03 00:01:45;;;;;;;23.32;17.42;;;;;;;9.80;100.00;98380.95;1710853;83;20968;-62
2022/11/03 00:04:15;;;;;;;22.82;17.27;;;;;;;9.83;100.00;98381.72;1705394;82;21526;-60
2022/11/03 00:06:43;;;;;;;21.00;16.93;;;;;;;9.79;100.00;98392.72;1696804;83;21265;-60
2022/11/03 00:09:12;;;;;;;18.92;16.20;;;;;;;9.72;100.00;98393.55;1713104;83;20988;-62
2022/11/03 00:11:40;;;;;;;20.48;16.80;;;;;;;9.69;100.00;98390.88;1701950;83;20904;-60
2022/11/03 00:14:11;;;;;;;19.73;16.05;;;;;;;9.68;100.00;98390.61;1713077;83;20904;-62
2022/11/03 00:16:38;;;;;;;22.82;17.52;;;;;;;9.66;100.00;98387.97;1715787;83;20979;-63
2022/11/03 00:19:06;;;;;;;21.82;18.45;;;;;;;9.67;100.00;98387.69;1714774;83;21419;-61
2022/11/03 00:21:34;;;;;;;20.43;17.05;;;;;;;9.71;100.00;98387.92;1711565;83;20929;-60
2022/11/03 00:24:04;;;;;;;23.30;16.52;;;;;;;9.70;100.00;98395.17;1705540;83;21030;-60
2022/11/03 00:26:32;;;;;;;23.27;17.30;;;;;;;9.70;100.00;98390.36;1712210;83;20974;-60
2022/11/03 00:29:02;;;;;;;22.40;16.87;;;;;;;9.69;100.00;98399.44;1718255;83;20891;-61
2022/11/03 00:31:31;;;;;;;24.87;16.90;;;;;;;9.68;100.00;98401.31;1692041;82;21102;-62
2022/11/03 00:33:58;;;;;;;20.85;16.52;;;;;;;9.68;100.00;98401.88;1704616;83;21520;-62
2022/11/03 00:36:34;;;;;;;20.85;16.00;;;;;;;9.65;100.00;98405.89;1702000;83;21455;-60
2022/11/03 00:39:02;;;;;;;22.30;16.37;;;;;;;9.63;100.00;98400.80;1696463;83;21007;-61
2022/11/03 00:41:30;;;;;;;28.07;18.15;;;;;;;9.62;100.00;98401.89;1707855;83;22375;-59
2022/11/03 00:43:56;;;;;;;24.67;16.50;;;;;;;9.60;100.00;98404.57;1700811;83;21425;-60
2022/11/03 00:46:24;;;;;;;20.80;16.02;;;;;;;9.59;100.00;98409.11;1714576;82;20896;-61
2022/11/03 00:48:51;;;;;;;22.15;16.52;;;;;;;9.58;100.00;98395.49;1716672;83;21197;-60
2022/11/03 00:51:24;;;;;;;21.73;18.90;;;;;;;9.60;100.00;98397.35;1713237;83;21512;-60
2022/11/03 00:53:56;;;;;;;21.62;16.93;;;;;;;9.59;100.00;98401.09;1706084;83;21020;-60
2022/11/03 00:56:31;;;;;;;20.32;16.93;;;;;;;9.58;100.00;98404.85;1690788;83;21487;-62
2022/11/03 00:58:59;;;;;;;22.02;18.20;;;;;;;9.60;100.00;98415.27;1707772;83;21075;-61
2022/11/03 01:01:33;;;;;;;21.77;18.20;;;;;;;9.57;100.00;98409.92;1714275;82;20932;-61
2022/11/03 01:06:49;;;;;;;21.37;15.53;;;;;;;9.55;100.00;98425.98;1710067;83;21421;-61
2022/11/03 01:09:34;;;;;;;22.77;16.70;;;;;;;9.54;100.00;98415.81;1718128;83;21104;-62
2022/11/03 01:12:08;;;;;;;20.60;17.77;;;;;;;9.55;100.00;98412.08;1712809;83;20849;-60
2022/11/03 01:14:40;;;;;;;22.87;16.70;;;;;;;9.55;100.00;98407.26;1716495;83;20887;-61
2022/11/03 01:17:09;;;;;;;18.00;15.88;;;;;;;9.56;100.00;98410.98;1697144;83;21530;-60
2022/11/03 01:19:36;;;;;;;22.87;15.75;;;;;;;9.58;100.00;98407.53;1718408;82;21455;-61
2022/11/03 01:22:03;;;;;;;21.60;17.85;;;;;;;9.59;100.00;98402.42;1712912;83;21107;-59
2022/11/03 01:24:29;;;;;;;21.97;17.48;;;;;;;9.62;100.00;98406.43;1706239;83;20975;-61
2022/11/03 01:26:56;;;;;;;23.80;16.20;;;;;;;9.62;100.00;98397.88;1696201;83;21011;-61
2022/11/03 01:29:23;;;;;;;21.97;16.42;;;;;;;9.63;100.00;98400.80;1698368;83;21484;-61
2022/11/03 01:31:50;;;;;;;22.62;18.30;;;;;;;9.61;100.00;98397.59;1707428;83;21616;-60
2022/11/03 01:34:19;;;;;;;24.65;18.02;;;;;;;9.61;100.00;98390.91;1701480;83;21250;-61
2022/11/03 01:36:47;;;;;;;22.52;17.00;;;;;;;9.62;100.00;98389.05;1711129;83;20912;-62
2022/11/03 01:39:16;;;;;;;22.65;17.20;;;;;;;9.61;100.00;98370.86;1699249;83;20979;-61
2022/11/03 01:41:46;;;;;;;22.25;16.73;;;;;;;9.59;100.00;98386.91;1706035;83;21499;-62
2022/11/03 01:44:19;;;;;;;25.43;18.40;;;;;;;9.55;100.00;98400.05;1701389;83;21086;-62
2022/11/03 01:47:13;;;;;;;21.60;17.90;;;;;;;9.55;100.00;98403.25;1712991;83;21133;-62
2022/11/03 01:49:51;;;;;;;22.58;16.55;;;;;;;9.53;100.00;98411.55;1699567;83;20905;-62
2022/11/03 01:52:38;;;;;;;21.40;17.00;;;;;;;9.53;100.00;98408.87;1700474;83;21011;-62
2022/11/03 01:55:15;;;;;;;21.90;18.30;;;;;;;9.54;100.00;98408.32;1690880;83;21074;-61
2022/11/03 01:57:49;;;;;;;21.10;17.60;;;;;;;9.52;100.00;98396.56;1709359;83;21495;-63
2022/11/03 02:00:16;;;;;;;23.55;17.73;;;;;;;9.49;100.00;98394.43;1708221;83;21255;-62
2022/11/03 02:02:55;;;;;;;19.05;16.62;;;;;;;9.46;100.00;98384.30;1714489;83;20956;-60
2022/11/03 02:05:23;;;;;;;24.43;19.20;;;;;;;9.42;100.00;98385.13;1712957;83;20864;-60
2022/11/03 02:08:01;;;;;;;28.27;19.17;;;;;;;9.37;100.00;98388.59;1712823;83;20940;-60
2022/11/03 02:10:27;;;;;;;18.90;16.67;;;;;;;9.33;100.00;98392.89;1686898;83;20956;-61
2022/11/03 02:12:55;;;;;;;21.62;17.42;;;;;;;9.30;100.00;98406.79;1716075;83;21220;-60
2022/11/03 02:15:22;;;;;;;20.82;18.30;;;;;;;9.26;100.00;98405.73;1707880;83;20896;-61
2022/11/03 02:17:51;;;;;;;25.50;18.12;;;;;;;9.26;100.00;98405.73;1671715;83;21484;-60
2022/11/03 02:20:24;;;;;;;22.42;16.93;;;;;;;9.24;100.00;98411.89;1707866;83;21001;-61
2022/11/03 02:23:12;;;;;;;21.50;16.95;;;;;;;9.18;100.00;98408.98;1716191;83;21058;-60
2022/11/03 02:25:52;;;;;;;18.75;16.60;;;;;;;9.15;100.00;98412.19;1703245;83;21230;-63
2022/11/03 02:28:29;;;;;;;24.30;16.85;;;;;;;9.10;100.00;98414.87;1704382;83;20915;-60
2022/11/03 02:31:22;;;;;;;22.85;17.12;;;;;;;9.09;100.00;98409.24;1696594;83;21067;-61
2022/11/03 02:34:18;;;;;;;22.65;17.02;;;;;;;9.06;100.00;98413.81;1685100;83;20940;-62
2022/11/03 02:36:58;;;;;;;20.65;17.48;;;;;;;9.05;100.00;98405.52;1703349;83;20988;-60
2022/11/03 02:39:29;;;;;;;22.82;17.90;;;;;;;9.03;100.00;98418.35;1696032;83;21240;-59
2022/11/03 02:41:56;;;;;;;19.07;15.30;;;;;;;9.02;100.00;98418.08;1716535;82;20893;-60
2022/11/03 02:44:24;;;;;;;23.73;16.82;;;;;;;9.03;100.00;98418.35;1714905;83;21467;-61
2022/11/03 02:46:55;;;;;;;20.80;17.00;;;;;;;9.03;100.00;98410.86;1701511;83;21047;-61
2022/11/03 02:49:21;;;;;;;21.33;16.20;;;;;;;9.02;100.00;98410.06;1718203;83;21026;-59
2022/11/03 02:52:00;;;;;;;22.52;15.88;;;;;;;9.02;100.00;98402.05;1716498;83;21116;-61
2022/11/03 02:54:41;;;;;;;23.47;15.38;;;;;;;8.99;100.00;98409.28;1713034;83;20869;-62
2022/11/03 02:57:19;;;;;;;21.33;16.37;;;;;;;8.95;100.00;98398.84;1701976;83;21004;-60
2022/11/03 02:59:51;;;;;;;18.55;16.20;;;;;;;8.93;100.00;98402.33;1716498;82;20928;-59
2022/11/03 03:02:22;;;;;;;20.00;16.12;;;;;;;8.92;100.00;98412.77;1714351;82;20876;-60
2022/11/03 03:04:53;;;;;;;20.95;16.07;;;;;;;8.91;100.00;98416.49;1714229;82;22085;-60
2022/11/03 03:07:29;;;;;;;19.27;16.20;;;;;;;8.90;100.00;98425.59;1714133;83;20936;-60
2022/11/03 03:10:09;;;;;;;20.23;15.83;;;;;;;8.89;100.00;98428.80;1717934;83;21478;-61
2022/11/03 03:12:37;;;;;;;22.10;15.23;;;;;;;8.90;100.00;98424.26;1714797;83;20883;-60
2022/11/03 03:15:07;;;;;;;25.55;16.52;;;;;;;8.87;100.00;98415.44;1722467;82;20889;-59
2022/11/03 03:17:55;;;;;;;20.45;15.72;;;;;;;8.83;100.00;98422.39;1710681;82;20912;-61
2022/11/03 03:20:27;;;;;;;19.50;15.00;;;;;;;8.77;100.00;98425.59;1716517;82;20987;-61
2022/11/03 03:23:08;;;;;;;18.10;14.63;;;;;;;8.74;100.00;98430.66;1699927;83;21001;-60
2022/11/03 03:25:42;;;;;;;19.55;15.85;;;;;;;8.73;100.00;98435.74;1708200;83;20987;-61
2022/11/03 03:28:20;;;;;;;18.60;14.30;;;;;;;8.69;100.00;98436.02;1698371;83;21507;-61
2022/11/03 03:30:46;;;;;;;18.55;14.60;;;;;;;8.67;100.00;98434.12;1714144;83;21126;-61
2022/11/03 03:33:13;;;;;;;19.52;15.00;;;;;;;8.66;100.00;98447.23;1703854;83;20976;-61
2022/11/03 03:35:41;;;;;;;21.17;14.83;;;;;;;8.64;100.00;98449.37;1681815;83;20983;-61
2022/11/03 03:38:14;;;;;;;17.98;14.03;;;;;;;8.63;100.00;98447.75;1711959;83;20952;-61
2022/11/03 03:40:42;;;;;;;19.27;13.93;;;;;;;8.62;100.00;98434.92;1710813;83;21044;-60
2022/11/03 03:43:10;;;;;;;19.17;14.83;;;;;;;8.61;100.00;98427.19;1703778;83;21241;-61
2022/11/03 03:45:36;;;;;;;19.40;15.35;;;;;;;8.61;100.00;98431.20;1680574;83;20962;-60
2022/11/03 03:48:04;;;;;;;18.05;12.55;;;;;;;8.56;100.00;98435.20;1715755;83;21526;-62
2022/11/03 03:50:34;;;;;;;21.40;13.35;;;;;;;8.56;100.00;98433.86;1716443;83;20991;-60
2022/11/03 03:53:05;;;;;;;21.85;14.15;;;;;;;8.56;100.00;98425.84;1701497;83;20896;-61
2022/11/03 03:55:46;;;;;;;21.85;14.55;;;;;;;8.56;100.00;98427.19;1680568;83;21188;-59
2022/11/03 03:58:13;;;;;;;21.97;13.98;;;;;;;8.55;100.00;98421.59;1708607;83;21011;-62
2022/11/03 04:00:40;;;;;;;21.17;12.88;;;;;;;8.53;100.00;98419.70;1708172;83;21142;-61
2022/11/03 04:03:17;;;;;;;19.37;13.85;;;;;;;8.52;100.00;98419.45;1696430;83;21044;-61
2022/11/03 04:05:44;;;;;;;18.45;14.23;;;;;;;8.52;100.00;98422.92;1710492;83;21445;-62
2022/11/03 04:08:13;;;;;;;18.70;13.28;;;;;;;8.52;100.00;98424.27;1705291;83;21243;-61
2022/11/03 04:10:39;;;;;;;19.82;14.30;;;;;;;8.52;100.00;98429.60;1707641;83;20916;-61
2022/11/03 04:24:09;;;;;;;23.25;14.18;;;;;;;8.44;100.00;98419.44;1716250;83;21494;-61
2022/11/03 04:26:36;;;;;;;19.92;13.78;;;;;;;8.43;100.00;98425.05;1714660;83;20928;-59
2022/11/03 04:29:05;;;;;;;19.52;13.35;;;;;;;8.42;100.00;98428.78;1717083;83;20947;-58
2022/11/03 04:31:34;;;;;;;18.07;13.45;;;;;;;8.41;100.00;98424.52;1694764;83;21130;-62
2022/11/03 04:34:03;;;;;;;17.42;13.78;;;;;;;8.42;100.00;98430.11;1718161;83;21109;-61
2022/11/03 04:36:29;;;;;;;18.75;13.72;;;;;;;8.41;100.00;98429.30;1682540;83;20991;-61
2022/11/03 04:38:56;;;;;;;19.90;13.85;;;;;;;8.38;100.00;98437.05;1702811;83;21118;-61
2022/11/03 04:41:28;;;;;;;19.23;13.90;;;;;;;8.37;100.00;98438.91;1714585;83;21434;-61
2022/11/03 04:43:55;;;;;;;23.05;16.27;;;;;;;8.36;100.00;98443.19;1709425;83;21035;-61
2022/11/03 04:46:25;;;;;;;22.95;15.88;;;;;;;8.36;100.00;98443.19;1666744;83;21937;-61
2022/11/03 04:48:53;;;;;;;25.75;14.20;;;;;;;8.31;100.00;98440.52;1715662;83;21101;-60
2022/11/03 04:51:24;;;;;;;21.00;13.72;;;;;;;8.30;100.00;98441.56;1712888;83;20960;-62
2022/11/03 04:54:08;;;;;;;17.42;13.35;;;;;;;8.31;100.00;98444.52;1714736;83;20983;-60
2022/11/03 04:56:34;;;;;;;20.08;12.95;;;;;;;8.33;100.00;98441.86;1706373;83;21019;-63
2022/11/03 04:59:01;;;;;;;17.17;11.75;;;;;;;8.34;100.00;98442.66;1712591;83;22039;-62
2022/11/03 05:01:29;;;;;;;19.77;12.13;;;;;;;8.35;100.00;98437.58;1640851;83;21512;-62
2022/11/03 05:03:56;;;;;;;16.07;11.88;;;;;;;8.30;100.00;98454.39;1682157;83;21008;-63
2022/11/03 05:09:21;;;;;;;19.80;12.37;;;;;;;8.28;100.00;98463.72;1715047;83;20899;-60
2022/11/03 05:11:50;;;;;;;20.45;12.18;;;;;;;8.24;100.00;98460.76;1714601;82;21415;-59
2022/11/03 05:14:23;;;;;;;21.55;12.82;;;;;;;8.22;100.00;98461.53;1716753;83;20915;-62
2022/11/03 05:16:54;;;;;;;19.87;12.25;;;;;;;8.20;100.00;98461.80;1715440;83;20951;-62
2022/11/03 05:19:33;;;;;;;15.90;11.65;;;;;;;8.18;100.00;98461.80;1716363;83;20935;-62
2022/11/03 05:21:59;;;;;;;18.57;12.37;;;;;;;8.15;100.00;98461.78;1680663;83;20960;-60
2022/11/03 05:24:26;;;;;;;20.75;12.45;;;;;;;8.10;100.00;98455.09;1701418;83;21076;-60
2022/11/03 05:26:55;;;;;;;16.73;12.00;;;;;;;8.07;100.00;98458.84;1707344;83;21495;-61
2022/11/03 05:29:36;;;;;;;19.50;10.90;;;;;;;8.04;100.00;98462.83;1716282;83;21482;-60
2022/11/03 05:32:11;;;;;;;17.32;11.12;;;;;;;8.04;100.00;98467.36;1712833;82;20983;-59
2022/11/03 05:34:51;;;;;;;16.65;11.83;;;;;;;8.00;100.00;98473.77;1712845;83;21039;-61
2022/11/03 05:37:32;;;;;;;18.40;10.88;;;;;;;7.97;100.00;98474.28;1702625;83;21294;-63
2022/11/03 05:40:04;;;;;;;16.35;10.35;;;;;;;7.89;100.00;98472.10;1718201;82;20928;-60
2022/11/03 05:42:37;;;;;;;16.27;10.32;;;;;;;7.86;100.00;98475.83;1716458;83;21516;-62
2022/11/03 05:45:25;;;;;;;16.20;10.35;;;;;;;7.83;100.00;98485.16;1707157;83;21004;-62
2022/11/03 05:47:53;;;;;;;21.37;12.40;;;;;;;7.84;100.00;98485.44;1701957;83;21019;-61
2022/11/03 05:50:29;;;;;;;18.62;12.15;;;;;;;7.85;100.00;98487.55;1704067;83;21416;-62
2022/11/03 05:53:19;;;;;;;14.47;10.85;;;;;;;7.85;100.00;98488.36;1681601;83;21020;-59
2022/11/03 05:55:45;;;;;;;20.75;12.00;;;;;;;7.88;100.00;98497.70;1712431;83;20995;-62
2022/11/03 05:58:30;;;;;;;20.17;13.68;;;;;;;7.88;100.00;98501.70;1707404;83;21044;-61
2022/11/03 06:00:57;;;;;;;16.85;11.60;;;;;;;7.86;100.00;98499.31;1715335;83;20943;-62
2022/11/03 06:03:27;;;;;;;17.75;11.12;;;;;;;7.84;100.00;98504.11;1667370;83;22166;-62
2022/11/03 06:05:54;;;;;;;16.75;11.73;;;;;;;7.84;100.00;98501.44;1713777;83;20955;-63
2022/11/03 06:08:25;;;;;;;20.17;12.37;;;;;;;7.86;100.00;98510.50;1715084;83;21046;-60
2022/11/03 06:10:54;;;;;;;19.20;11.33;;;;;;;7.89;100.00;98510.00;1712881;83;20923;-67
2022/11/03 06:13:37;;;;;;;21.02;10.65;;;;;;;7.93;100.00;98511.88;1700982;83;21001;-62
2022/11/03 06:16:26;;;;;;;20.10;10.43;;;;;;;7.95;100.00;98523.61;1701038;83;21212;-60
2022/11/03 06:18:54;;;;;;;17.32;11.12;;;;;;;7.97;100.00;98516.15;1706541;82;21129;-61
2022/11/03 06:21:23;;;;;;;19.07;10.45;;;;;;;7.98;100.00;98524.44;1664233;83;21126;-64
2022/11/03 06:23:52;;;;;;;15.60;10.23;;;;;;;8.00;100.00;98527.64;1682409;83;21162;-60
2022/11/03 06:26:25;;;;;;;20.10;10.20;;;;;;;7.99;100.00;98524.69;1712765;81;21085;-60
2022/11/03 06:28:54;;;;;;;15.58;11.05;;;;;;;7.97;100.00;98536.97;1721644;81;21572;-62
2022/11/03 06:31:28;;;;;;;13.25;9.68;;;;;;;8.00;100.00;98539.13;1713665;81;20940;-62
2022/11/03 06:33:59;;;;;;;20.17;10.23;;;;;;;8.03;100.00;98546.58;1713744;82;21422;-60
2022/11/03 06:36:35;;;;;;;16.65;10.78;;;;;;;8.05;100.00;98548.48;1707125;83;20975;-62
2022/11/03 06:39:07;;;;;;;13.13;9.73;;;;;;;8.07;100.00;98543.69;1709347;82;21506;-64
2022/11/03 06:41:39;;;;;;;15.38;9.98;;;;;;;8.10;100.00;98552.48;1689516;83;20923;-65
2022/11/03 06:44:25;;;;;;;17.35;10.00;;;;;;;8.17;100.00;98545.04;1712482;82;20999;-61
2022/11/03 06:46:58;;;;;;;18.77;10.50;;;;;;;8.26;100.00;98549.39;1720769;82;20993;-60
2022/11/03 06:49:32;;;;;;;16.27;9.45;;;;;;;8.39;100.00;98552.08;1685886;83;20987;-61
2022/11/03 06:52:00;;;;;;;18.45;9.58;;;;;;;8.47;100.00;98550.25;1707154;81;21581;-64
2022/11/03 06:54:28;;;;;;;16.87;9.78;;;;;;;8.57;100.00;98555.63;1684638;83;21506;-65
2022/11/03 06:56:55;;;;;;;20.10;10.25;;;;;;;8.64;100.00;98558.84;1706828;83;21130;-68
2022/11/03 06:59:23;;;;;;;14.53;10.15;;;;;;;8.66;100.00;98562.05;1690482;83;21011;-64
2022/11/03 07:01:55;;;;;;;15.68;9.95;;;;;;;8.65;100.00;98559.10;1655648;83;21494;-64
2022/11/03 07:04:27;;;;;;;15.30;10.18;;;;;;;8.65;100.00;98563.11;1707162;82;21483;-65
2022/11/03 07:06:56;;;;;;;22.00;11.48;;;;;;;8.64;100.00;98565.00;1705984;83;21198;-64
2022/11/03 07:09:28;;;;;;;16.90;9.98;;;;;;;8.64;100.00;98558.84;1709982;83;21152;-65
2022/11/03 07:11:58;;;;;;;18.62;10.15;;;;;;;8.63;100.00;98563.38;1688880;83;21602;-62
2022/11/03 07:14:27;;;;;;;17.12;10.08;;;;;;;8.63;100.00;98563.91;1691284;83;21006;-63
2022/11/03 07:17:05;;;;;;;22.17;10.20;;;;;;;8.64;100.00;98560.99;1707359;83;21597;-63
2022/11/03 07:19:39;;;;;;;18.48;10.15;;;;;;;8.64;100.00;98566.86;1668579;83;21576;-65
2022/11/03 07:22:17;;;;;;;17.02;9.70;;;;;;;8.64;100.00;98565.52;1744388;82;21516;-62
2022/11/03 07:24:46;;;;;;;17.17;10.32;;;;;;;8.72;100.00;98559.65;1710389;82;21471;-61
2022/11/03 07:27:27;;;;;;;14.53;9.38;;;;;;;8.75;100.00;98558.61;1702347;82;21115;-65
2022/11/03 07:30:00;;;;;;;16.73;10.08;;;;;;;8.76;100.00;98558.86;1705433;82;21059;-64
2022/11/03 07:32:30;;;;;;;18.37;9.75;;;;;;;8.74;100.00;98553.51;1707426;82;21710;-62
2022/11/03 07:35:34;;;;;;;17.52;10.75;;;;;;;8.74;100.00;98550.84;1713419;83;21587;-69
2022/11/03 07:38:09;;;;;;;17.62;11.40;;;;;;;8.75;100.00;98548.45;1711223;83;20990;-61
2022/11/03 07:40:36;;;;;;;;;;;;;;;8.83;100.00;98547.94;1719166;83;21471;-59
2022/11/03 07:43:18;;;;;;;17.57;10.23;;;;;;;8.93;100.00;98545.26;1712973;82;20237;-66
2022/11/03 07:45:52;;;;;;;18.52;10.45;;;;;;;9.04;100.00;98543.41;1703587;82;21172;-65
2022/11/03 07:48:47;;;;;;;18.27;10.82;;;;;;;9.17;100.00;98536.19;1713089;82;20987;-66
2022/11/03 07:51:32;;;;;;;21.07;10.32;;;;;;;9.26;100.00;98536.72;1695549;82;21035;-62
2022/11/03 07:54:10;;;;;;;20.57;10.08;;;;;;;9.31;100.00;98538.58;1703548;82;21511;-65
2022/11/03 07:56:41;;;;;;;18.50;9.98;;;;;;;9.40;100.00;98541.78;1712011;82;21118;-58
2022/11/03 07:59:18;;;;;;;16.17;9.93;;;;;;;9.47;100.00;98543.65;1708061;82;21850;-59
2022/11/03 08:01:53;;;;;;;14.45;9.78;;;;;;;9.54;100.00;98530.80;1713101;81;21522;-62
2022/11/03 08:04:32;;;;;;;15.83;9.25;;;;;;;9.66;99.89;98532.41;1719101;81;21027;-63
2022/11/03 08:06:59;;;;;;;20.57;9.38;;;;;;;9.69;99.23;98533.18;1716149;82;21011;-61
2022/11/03 08:09:33;;;;;;;;;;;;;;;9.70;98.57;98536.13;1686973;83;39328;-62
2022/11/03 08:12:05;;;;;;;16.37;10.03;;;;;;;9.71;98.62;98533.17;1717972;82;20132;-62
2022/11/03 08:14:32;;;;;;;14.73;9.58;;;;;;;9.73;98.70;98535.59;1713037;83;21631;-61
2022/11/03 08:17:00;;;;;;;18.45;9.53;;;;;;;9.73;98.27;98538.27;1714701;83;21081;-60
2022/11/03 08:19:27;;;;;;;18.05;9.78;;;;;;;9.72;98.04;98541.48;1715994;83;21104;-61
2022/11/03 08:21:55;;;;;;;15.78;9.53;;;;;;;9.68;97.55;98543.63;1712214;83;21106;-62
2022/11/03 08:43:20;;;;;;;16.27;9.63;;;;;;;10.12;94.83;98521.84;1716936;82;20986;-61
2022/11/03 08:45:52;;;;;;;16.77;9.60;;;;;;;10.16;93.99;98520.22;1708458;83;21534;-61
2022/11/03 08:48:17;;;;;;;14.78;8.45;;;;;;;10.20;93.75;98513.23;1701096;82;21072;-62
2022/11/03 08:50:49;;;;;;;17.35;8.48;;;;;;;10.25;93.98;98511.34;1706085;82;21590;-61
2022/11/03 08:53:25;;;;;;;14.68;9.00;;;;;;;10.33;92.15;98513.98;1704550;83;21696;-61
2022/11/03 08:55:53;;;;;;;15.58;8.60;;;;;;;10.41;92.14;98516.06;1692346;82;21001;-61
2022/11/03 08:58:21;;;;;;;18.57;8.80;;;;;;;10.48;91.79;98515.78;1691169;84;20914;-62
2022/11/03 09:00:49;;;;;;;17.17;9.00;;;;;;;10.53;90.64;98517.88;1709547;83;21175;-60
2022/11/03 09:03:16;;;;;;;14.60;9.28;;;;;;;10.52;91.26;98516.30;1714946;82;21066;-69
2022/11/03 09:05:43;;;;;;;20.12;9.60;;;;;;;10.56;91.17;98517.86;1710671;82;21247;-62
2022/11/03 09:08:13;;;;;;;18.23;9.18;;;;;;;10.62;91.46;98509.52;1713371;82;20970;-64
2022/11/03 09:10:41;;;;;;;17.92;9.33;;;;;;;10.76;90.99;98513.73;1714283;82;20995;-57
2022/11/03 09:13:08;;;;;;;18.40;9.33;;;;;;;10.87;90.22;98505.34;1705874;83;21528;-58
2022/11/03 09:15:36;;;;;;;20.40;10.25;;;;;;;10.98;90.07;98501.50;1712384;82;21141;-68
2022/11/03 09:18:04;;;;;;;19.07;10.82;;;;;;;11.17;88.08;98502.95;1688560;84;21119;-59
2022/11/03 09:20:34;;;;;;;17.57;8.48;;;;;;;11.25;87.26;98503.69;1673658;84;21000;-62
2022/11/03 09:23:03;;;;;;;15.68;8.53;;;;;;;11.21;86.11;98503.97;1654131;84;21775;-58
2022/11/03 09:25:32;;;;;;;15.13;8.80;;;;;;;11.17;85.89;98501.61;1679062;85;20965;-62
2022/11/03 09:28:01;;;;;;;13.75;8.00;;;;;;;11.21;85.92;98491.91;1685059;82;21622;-63
2022/11/03 09:30:30;;;;;;;14.05;7.45;;;;;;;11.30;84.91;98494.80;1714380;82;20990;-61
2022/11/03 09:32:57;;;;;;;14.15;6.28;;;;;;;11.39;85.57;98493.10;1697375;82;21079;-62
2022/11/03 09:35:24;;;;;;;13.30;5.95;;;;;;;11.56;84.70;98486.77;1713992;81;21127;-61
2022/11/03 09:37:51;;;;;;;13.05;6.67;;;;;;;11.64;80.76;98494.17;1722809;82;21108;-60
2022/11/03 09:40:20;;;;;;;10.50;6.15;;;;;;;11.62;82.11;98485.61;1698127;82;21134;-60
2022/11/03 09:42:47;;;;;;;13.43;5.80;;;;;;;11.68;81.40;98484.52;1707387;82;21125;-59
2022/11/03 09:45:16;;;;;;;16.23;6.30;;;;;;;11.74;81.39;98486.05;1705977;82;21529;-62
2022/11/03 09:47:49;;;;;;;15.00;6.30;;;;;;;11.86;80.58;98494.51;1712761;82;20991;-59
2022/11/03 09:50:19;;;;;;;8.38;5.22;;;;;;;11.97;79.86;98490.61;1699911;82;21064;-62
2022/11/03 09:52:46;;;;;;;9.08;5.30;;;;;;;12.10;79.56;98491.81;1704706;82;21085;-65
2022/11/03 09:55:17;;;;;;;11.15;4.80;;;;;;;12.18;77.48;98491.95;1704661;82;21173;-63
2022/11/03 09:57:44;;;;;;;13.40;5.10;;;;;;;12.23;76.64;98490.55;1698818;81;21076;-62
2022/11/03 10:00:20;;;;;;;9.88;5.80;;;;;;;12.26;76.59;98494.02;1691253;83;21495;-64
2022/11/03 10:02:47;;;;;;;11.85;5.78;;;;;;;12.35;76.66;98498.99;1706696;83;21203;-64
2022/11/03 10:05:24;;;;;;;7.00;4.30;;;;;;;12.36;75.18;98492.52;1706200;82;21098;-69
2022/11/03 10:07:54;;;;;;;9.53;4.85;;;;;;;12.35;73.16;98486.91;1693395;82;21092;-63
2022/11/03 10:10:22;;;;;;;6.95;4.50;;;;;;;12.30;73.66;98493.69;1696936;82;21067;-63
2022/11/03 10:12:50;;;;;;;9.43;5.80;;;;;;;12.22;72.19;98490.28;1698471;82;21553;-64
2022/11/03 10:15:18;;;;;;;9.90;4.78;;;;;;;12.16;73.15;98494.67;1705939;83;21027;-59
2022/11/03 10:17:45;;;;;;;12.20;5.10;;;;;;;12.13;73.28;98486.64;1704525;83;21036;-64
2022/11/03 10:20:14;;;;;;;10.05;5.28;;;;;;;12.17;73.97;98490.38;1707315;83;21094;-69
2022/11/03 10:22:43;;;;;;;9.48;4.65;;;;;;;12.22;72.93;98482.23;1705846;83;21583;-64
2022/11/03 10:25:29;;;;;;;6.83;4.22;;;;;;;12.19;71.56;98490.88;1701664;82;21132;-61
2022/11/03 10:28:20;;;;;;;10.75;4.35;;;;;;;12.09;71.63;98495.03;1695370;82;21122;-63
2022/11/03 10:30:59;;;;;;;9.18;4.70;;;;;;;11.99;72.50;98480.38;1701200;82;21174;-61
2022/11/03 10:33:39;;;;;;;10.95;4.75;;;;;;;11.90;73.59;98481.30;1683752;83;21075;-56
2022/11/03 10:36:21;;;;;;;9.00;4.58;;;;;;;11.88;73.96;98475.42;1693802;82;21088;-65
2022/11/03 10:38:49;;;;;;;11.68;5.47;;;;;;;11.83;73.47;98474.94;1714824;81;21675;-58
2022/11/03 10:41:25;;;;;;;11.18;5.42;;;;;;;11.76;72.78;98483.87;1719758;81;21137;-64
2022/11/03 10:44:07;;;;;;;9.10;5.50;;;;;;;11.78;72.42;98481.70;1703489;82;21041;-65
2022/11/03 10:46:33;;;;;;;7.92;4.42;;;;;;;11.84;72.86;98471.19;1701035;83;21259;-63
2022/11/03 10:49:11;;;;;;;11.03;5.35;;;;;;;11.97;73.00;98470.48;1683115;83;21515;-64
2022/11/03 10:51:38;;;;;;;9.63;5.17;;;;;;;12.03;72.14;98468.54;1699511;83;21066;-61
2022/11/03 10:54:07;;;;;;;7.60;4.70;;;;;;;12.00;71.27;98463.20;1691273;83;21599;-62
2022/11/03 10:56:34;;;;;;;8.40;4.30;;;;;;;12.03;71.81;98464.52;1692095;83;21549;-69
2022/11/03 10:59:01;;;;;;;7.35;4.53;;;;;;;12.10;70.83;98467.11;1694284;83;21239;-71
2022/11/03 11:01:28;;;;;;;10.53;4.85;;;;;;;12.13;70.90;98470.53;1700071;82;21175;-65
2022/11/03 11:03:56;;;;;;;7.47;4.22;;;;;;;12.21;70.24;98463.19;1698537;83;21315;-66
2022/11/03 11:06:28;;;;;;;12.00;4.50;;;;;;;12.28;68.85;98464.17;1700781;82;21071;-65
2022/11/03 11:09:01;;;;;;;8.33;4.30;;;;;;;12.29;68.86;98466.55;1695060;83;21101;-62
2022/11/03 11:11:28;;;;;;;7.42;4.08;;;;;;;12.29;69.60;98466.55;1718823;81;21269;-64
2022/11/03 11:14:29;;;;;;;7.45;3.87;;;;;;;12.31;68.92;98465.75;1720723;81;21099;-65
2022/11/03 11:16:58;;;;;;;7.08;3.85;;;;;;;12.43;68.53;98461.83;1696246;82;21010;-64
2022/11/03 11:19:28;;;;;;;12.03;4.45;;;;;;;12.58;68.34;98453.52;1700387;83;21089;-66
2022/11/03 11:21:59;;;;;;;9.18;4.75;;;;;;;12.67;68.42;98450.45;1690353;82;21046;-59
2022/11/03 11:24:48;;;;;;;13.05;4.95;;;;;;;12.76;68.71;98444.13;1701272;82;22107;-65
2022/11/03 11:27:44;;;;;;;14.85;4.62;;;;;;;12.84;68.03;98438.06;1691368;83;21557;-62
2022/11/03 11:30:28;;;;;;;6.90;3.80;;;;;;;12.85;66.99;98436.98;1695693;82;21091;-62
2022/11/03 11:33:00;;;;;;;7.17;3.02;;;;;;;12.87;66.67;98436.68;1690428;83;21043;-62
2022/11/03 11:35:32;;;;;;;5.05;2.42;;;;;;;12.93;63.19;98438.21;1692779;82;21150;-61
2022/11/03 11:38:51;;;;;;;6.00;2.58;;;;;;;12.96;62.92;98441.63;1696601;83;21595;-63
2022/11/03 11:41:19;;;;;;;7.22;3.15;;;;;;;12.92;62.19;98436.59;1696089;82;21511;-61
2022/11/03 13:55:46;;;;;;;4.42;2.08;;;;;;;11.08;66.43;98408.66;1823808;77;20182;-66
2022/11/03 13:58:13;;;;;;;8.90;2.37;;;;;;;11.11;66.79;98410.25;1826232;77;21070;-65
2022/11/03 14:00:40;;;;;;;4.35;2.42;;;;;;;11.15;66.94;98410.47;1826764;77;20949;-65
2022/11/03 14:03:06;;;;;;;5.70;2.60;;;;;;;11.11;67.34;98407.57;1820539;77;20917;-64
2022/11/03 14:05:34;;;;;;;6.45;2.40;;;;;;;11.11;67.78;98408.11;1812120;77;21587;-65
2022/11/03 14:08:01;;;;;;;5.25;2.80;;;;;;;11.09;68.21;98407.06;1830279;77;21215;-65
2022/11/03 14:10:29;;;;;;;5.80;2.90;;;;;;;11.06;68.57;98412.17;1822178;77;20921;-74
2022/11/03 14:12:56;;;;;;;6.45;2.98;;;;;;;11.03;68.99;98408.70;1822803;77;20957;-66
2022/11/03 14:15:24;;;;;;;8.03;3.10;;;;;;;11.00;69.10;98414.09;1809800;77;21485;-70
2022/11/03 14:17:51;;;;;;;8.53;3.58;;;;;;;10.96;69.50;98411.19;1788293;78;21086;-68
2022/11/03 14:20:18;;;;;;;6.10;2.90;;;;;;;10.90;69.67;98409.63;1811407;77;21103;-68
2022/11/03 14:22:46;;;;;;;4.92;2.80;;;;;;;10.83;69.57;98417.19;1812533;76;21202;-70
2022/11/03 14:25:14;;;;;;;5.75;2.85;;;;;;;10.76;69.85;98412.69;1832972;76;21541;-60
2022/11/03 14:27:42;;;;;;;7.10;2.90;;;;;;;10.67;70.32;98409.59;1833024;77;20983;-68
2022/11/03 14:30:12;;;;;;;5.87;2.83;;;;;;;10.59;70.70;98412.32;1836975;77;20984;-68
2022/11/03 14:32:38;;;;;;;10.32;4.10;;;;;;;10.53;70.95;98413.42;1831182;76;21191;-68